sensor_id;sensor_type;location;lat;lon;timestamp;P1;durP1;ratioP1;P2;durP2;ratioP2
19519;SDS011;9904;52.246;20.898;2023-10-09T00:02:08;16.43;;;5.07;;
19519;SDS011;9904;52.246;20.898;2023-10-09T00:04:37;13.80;;;4.60;;
19519;SDS011;9904;52.246;20.898;2023-10-09T00:07:08;12.17;;;4.23;;
19519;SDS011;9904;52.246;20.898;2023-10-09T00:09:37;13.17;;;4.30;;
19519;SDS011;9904;52.246;20.898;2023-10-09T00:12:15;15.83;;;4.67;;
19519;SDS011;9904;52.246;20.898;2023-10-09T00:14:50;10.87;;;4.17;;
19519;SDS011;9904;52.246;20.898;2023-10-09T00:17:22;11.93;;;5.23;;
19519;SDS011;9904;52.246;20.898;2023-10-09T00:19:50;20.83;;;6.17;;
19519;SDS011;9904;52.246;20.898;2023-10-09T00:22:26;16.13;;;6.30;;
19519;SDS011;9904;52.246;20.898;2023-10-09T00:24:54;18.07;;;5.83;;
19519;SDS011;9904;52.246;20.898;2023-10-09T00:27:43;13.93;;;5.27;;
19519;SDS011;9904;52.246;20.898;2023-10-09T00:30:13;13.30;;;4.70;;
19519;SDS011;9904;52.246;20.898;2023-10-09T00:32:45;11.60;;;4.63;;
19519;SDS011;9904;52.246;20.898;2023-10-09T00:35:26;14.00;;;4.80;;
19519;SDS011;9904;52.246;20.898;2023-10-09T00:38:05;12.33;;;4.47;;
19519;SDS011;9904;52.246;20.898;2023-10-09T00:40:48;13.53;;;4.90;;
19519;SDS011;9904;52.246;20.898;2023-10-09T00:43:24;13.47;;;4.97;;
19519;SDS011;9904;52.246;20.898;2023-10-09T00:45:56;10.50;;;4.50;;
19519;SDS011;9904;52.246;20.898;2023-10-09T00:48:29;15.97;;;5.43;;
19519;SDS011;9904;52.246;20.898;2023-10-09T00:50:57;19.43;;;5.67;;
19519;SDS011;9904;52.246;20.898;2023-10-09T00:53:27;13.33;;;4.97;;
19519;SDS011;9904;52.246;20.898;2023-10-09T00:55:59;12.83;;;4.50;;
19519;SDS011;9904;52.246;20.898;2023-10-09T00:58:47;11.47;;;4.40;;
19519;SDS011;9904;52.246;20.898;2023-10-09T01:01:25;12.27;;;4.50;;
19519;SDS011;9904;52.246;20.898;2023-10-09T01:04:01;12.43;;;4.57;;
19519;SDS011;9904;52.246;20.898;2023-10-09T01:06:40;10.20;;;4.17;;
19519;SDS011;9904;52.246;20.898;2023-10-09T01:09:12;10.83;;;4.13;;
19519;SDS011;9904;52.246;20.898;2023-10-09T01:11:41;13.40;;;4.53;;
19519;SDS011;9904;52.246;20.898;2023-10-09T01:14:15;10.63;;;4.30;;
19519;SDS011;9904;52.246;20.898;2023-10-09T01:16:42;12.00;;;4.80;;
19519;SDS011;9904;52.246;20.898;2023-10-09T01:19:10;13.07;;;5.27;;
19519;SDS011;9904;52.246;20.898;2023-10-09T01:21:46;16.70;;;4.97;;
19519;SDS011;9904;52.246;20.898;2023-10-09T01:24:14;17.17;;;5.00;;
19519;SDS011;9904;52.246;20.898;2023-10-09T01:26:43;18.97;;;5.43;;
19519;SDS011;9904;52.246;20.898;2023-10-09T01:29:20;17.33;;;5.10;;
19519;SDS011;9904;52.246;20.898;2023-10-09T01:31:49;17.53;;;5.30;;
19519;SDS011;9904;52.246;20.898;2023-10-09T01:37:19;15.57;;;5.10;;
19519;SDS011;9904;52.246;20.898;2023-10-09T01:39:56;17.93;;;5.13;;
19519;SDS011;9904;52.246;20.898;2023-10-09T01:42:25;14.47;;;5.47;;
19519;SDS011;9904;52.246;20.898;2023-10-09T01:44:56;18.30;;;4.87;;
19519;SDS011;9904;52.246;20.898;2023-10-09T01:47:37;15.37;;;4.97;;
19519;SDS011;9904;52.246;20.898;2023-10-09T01:50:07;19.37;;;6.07;;
19519;SDS011;9904;52.246;20.898;2023-10-09T01:52:48;17.07;;;6.07;;
19519;SDS011;9904;52.246;20.898;2023-10-09T01:55:16;16.57;;;5.97;;
19519;SDS011;9904;52.246;20.898;2023-10-09T01:58:15;22.23;;;6.30;;
19519;SDS011;9904;52.246;20.898;2023-10-09T02:00:48;19.73;;;6.27;;
19519;SDS011;9904;52.246;20.898;2023-10-09T02:03:20;23.53;;;7.67;;
19519;SDS011;9904;52.246;20.898;2023-10-09T02:05:51;21.97;;;7.87;;
19519;SDS011;9904;52.246;20.898;2023-10-09T02:08:20;19.53;;;6.70;;
19519;SDS011;9904;52.246;20.898;2023-10-09T02:11:02;22.60;;;6.30;;
19519;SDS011;9904;52.246;20.898;2023-10-09T02:13:29;21.67;;;5.40;;
19519;SDS011;9904;52.246;20.898;2023-10-09T02:15:56;15.13;;;5.00;;
19519;SDS011;9904;52.246;20.898;2023-10-09T02:18:39;14.27;;;5.20;;
19519;SDS011;9904;52.246;20.898;2023-10-09T02:21:08;13.67;;;4.37;;
19519;SDS011;9904;52.246;20.898;2023-10-09T02:23:35;24.37;;;5.23;;
19519;SDS011;9904;52.246;20.898;2023-10-09T02:26:07;13.10;;;4.50;;
19519;SDS011;9904;52.246;20.898;2023-10-09T02:28:35;14.93;;;4.33;;
19519;SDS011;9904;52.246;20.898;2023-10-09T02:31:11;14.07;;;4.47;;
19519;SDS011;9904;52.246;20.898;2023-10-09T02:33:40;10.37;;;4.20;;
19519;SDS011;9904;52.246;20.898;2023-10-09T02:36:07;8.73;;;3.63;;
19519;SDS011;9904;52.246;20.898;2023-10-09T02:38:34;13.43;;;4.10;;
19519;SDS011;9904;52.246;20.898;2023-10-09T02:41:07;9.60;;;3.30;;
19519;SDS011;9904;52.246;20.898;2023-10-09T02:43:36;10.43;;;3.93;;
19519;SDS011;9904;52.246;20.898;2023-10-09T02:46:13;15.73;;;4.37;;
19519;SDS011;9904;52.246;20.898;2023-10-09T02:48:44;10.50;;;4.07;;
19519;SDS011;9904;52.246;20.898;2023-10-09T02:51:22;12.13;;;4.00;;
19519;SDS011;9904;52.246;20.898;2023-10-09T02:53:56;12.43;;;4.60;;
19519;SDS011;9904;52.246;20.898;2023-10-09T02:56:24;12.20;;;4.03;;
19519;SDS011;9904;52.246;20.898;2023-10-09T02:59:03;8.67;;;3.47;;
19519;SDS011;9904;52.246;20.898;2023-10-09T03:01:37;8.13;;;3.40;;
19519;SDS011;9904;52.246;20.898;2023-10-09T03:04:05;12.97;;;4.00;;
19519;SDS011;9904;52.246;20.898;2023-10-09T03:06:32;7.23;;;3.90;;
19519;SDS011;9904;52.246;20.898;2023-10-09T03:09:04;8.97;;;4.03;;
19519;SDS011;9904;52.246;20.898;2023-10-09T03:11:46;9.40;;;4.17;;
19519;SDS011;9904;52.246;20.898;2023-10-09T03:14:20;12.03;;;4.00;;
19519;SDS011;9904;52.246;20.898;2023-10-09T03:16:47;9.80;;;3.67;;
19519;SDS011;9904;52.246;20.898;2023-10-09T03:19:16;10.30;;;3.93;;
19519;SDS011;9904;52.246;20.898;2023-10-09T03:21:43;16.43;;;4.00;;
19519;SDS011;9904;52.246;20.898;2023-10-09T03:24:10;13.43;;;4.33;;
19519;SDS011;9904;52.246;20.898;2023-10-09T03:26:38;9.33;;;3.93;;
19519;SDS011;9904;52.246;20.898;2023-10-09T03:29:04;11.37;;;3.93;;
19519;SDS011;9904;52.246;20.898;2023-10-09T03:31:33;9.90;;;4.10;;
19519;SDS011;9904;52.246;20.898;2023-10-09T03:34:00;11.43;;;4.00;;
19519;SDS011;9904;52.246;20.898;2023-10-09T03:36:27;10.60;;;3.83;;
19519;SDS011;9904;52.246;20.898;2023-10-09T03:38:55;10.80;;;4.07;;
19519;SDS011;9904;52.246;20.898;2023-10-09T03:41:24;9.90;;;4.47;;
19519;SDS011;9904;52.246;20.898;2023-10-09T03:43:55;14.90;;;4.67;;
19519;SDS011;9904;52.246;20.898;2023-10-09T03:46:22;10.20;;;4.13;;
19519;SDS011;9904;52.246;20.898;2023-10-09T03:48:52;11.03;;;4.13;;
19519;SDS011;9904;52.246;20.898;2023-10-09T03:51:22;9.93;;;4.30;;
19519;SDS011;9904;52.246;20.898;2023-10-09T03:53:50;10.13;;;4.10;;
19519;SDS011;9904;52.246;20.898;2023-10-09T03:56:19;9.53;;;3.57;;
19519;SDS011;9904;52.246;20.898;2023-10-09T03:58:48;9.67;;;4.03;;
19519;SDS011;9904;52.246;20.898;2023-10-09T04:01:16;10.17;;;3.80;;
19519;SDS011;9904;52.246;20.898;2023-10-09T04:03:55;9.13;;;3.67;;
19519;SDS011;9904;52.246;20.898;2023-10-09T04:06:27;12.37;;;4.17;;
19519;SDS011;9904;52.246;20.898;2023-10-09T04:09:03;9.70;;;3.70;;
19519;SDS011;9904;52.246;20.898;2023-10-09T04:11:47;12.43;;;3.77;;
19519;SDS011;9904;52.246;20.898;2023-10-09T04:14:38;14.80;;;4.40;;
19519;SDS011;9904;52.246;20.898;2023-10-09T04:17:16;10.67;;;4.13;;
19519;SDS011;9904;52.246;20.898;2023-10-09T04:19:48;17.30;;;4.47;;
19519;SDS011;9904;52.246;20.898;2023-10-09T04:22:39;13.63;;;4.20;;
19519;SDS011;9904;52.246;20.898;2023-10-09T04:25:25;9.67;;;4.07;;
19519;SDS011;9904;52.246;20.898;2023-10-09T04:27:55;9.50;;;3.77;;
19519;SDS011;9904;52.246;20.898;2023-10-09T04:30:39;12.23;;;4.13;;
19519;SDS011;9904;52.246;20.898;2023-10-09T04:33:13;11.23;;;4.60;;
19519;SDS011;9904;52.246;20.898;2023-10-09T04:36:09;11.60;;;4.00;;
19519;SDS011;9904;52.246;20.898;2023-10-09T04:38:45;8.97;;;4.07;;
19519;SDS011;9904;52.246;20.898;2023-10-09T04:41:31;11.70;;;4.43;;
19519;SDS011;9904;52.246;20.898;2023-10-09T04:44:18;12.07;;;4.23;;
19519;SDS011;9904;52.246;20.898;2023-10-09T04:46:47;16.00;;;5.00;;
19519;SDS011;9904;52.246;20.898;2023-10-09T04:49:34;18.17;;;4.73;;
19519;SDS011;9904;52.246;20.898;2023-10-09T04:52:17;10.40;;;4.40;;
19519;SDS011;9904;52.246;20.898;2023-10-09T04:55:05;29.60;;;3.93;;
19519;SDS011;9904;52.246;20.898;2023-10-09T04:57:34;8.57;;;3.97;;
19519;SDS011;9904;52.246;20.898;2023-10-09T05:00:05;13.37;;;4.13;;
19519;SDS011;9904;52.246;20.898;2023-10-09T05:02:52;9.27;;;3.73;;
19519;SDS011;9904;52.246;20.898;2023-10-09T05:05:31;12.80;;;3.97;;
19519;SDS011;9904;52.246;20.898;2023-10-09T05:08:08;8.13;;;3.30;;
19519;SDS011;9904;52.246;20.898;2023-10-09T05:10:51;12.97;;;4.10;;
19519;SDS011;9904;52.246;20.898;2023-10-09T05:13:32;9.33;;;3.90;;
19519;SDS011;9904;52.246;20.898;2023-10-09T05:18:56;9.50;;;3.80;;
19519;SDS011;9904;52.246;20.898;2023-10-09T05:21:35;9.83;;;4.00;;
19519;SDS011;9904;52.246;20.898;2023-10-09T05:24:04;8.53;;;3.30;;
19519;SDS011;9904;52.246;20.898;2023-10-09T05:29:16;11.30;;;3.70;;
19519;SDS011;9904;52.246;20.898;2023-10-09T05:32:00;11.47;;;3.60;;
19519;SDS011;9904;52.246;20.898;2023-10-09T05:34:40;9.43;;;3.83;;
19519;SDS011;9904;52.246;20.898;2023-10-09T05:37:27;9.37;;;3.80;;
19519;SDS011;9904;52.246;20.898;2023-10-09T05:40:04;13.17;;;4.33;;
19519;SDS011;9904;52.246;20.898;2023-10-09T05:42:44;10.67;;;3.27;;
19519;SDS011;9904;52.246;20.898;2023-10-09T05:45:16;11.97;;;4.63;;
19519;SDS011;9904;52.246;20.898;2023-10-09T05:47:44;12.07;;;3.70;;
19519;SDS011;9904;52.246;20.898;2023-10-09T05:50:18;12.10;;;3.60;;
19519;SDS011;9904;52.246;20.898;2023-10-09T05:52:45;9.40;;;3.53;;
19519;SDS011;9904;52.246;20.898;2023-10-09T05:55:21;9.23;;;3.20;;
19519;SDS011;9904;52.246;20.898;2023-10-09T05:58:15;15.30;;;3.97;;
19519;SDS011;9904;52.246;20.898;2023-10-09T06:01:00;9.70;;;3.63;;
19519;SDS011;9904;52.246;20.898;2023-10-09T06:03:53;12.10;;;3.63;;
19519;SDS011;9904;52.246;20.898;2023-10-09T06:06:31;9.93;;;3.70;;
19519;SDS011;9904;52.246;20.898;2023-10-09T06:09:09;11.93;;;4.03;;
19519;SDS011;9904;52.246;20.898;2023-10-09T06:11:45;12.53;;;3.90;;
19519;SDS011;9904;52.246;20.898;2023-10-09T06:14:22;11.20;;;3.37;;
19519;SDS011;9904;52.246;20.898;2023-10-09T06:17:12;9.83;;;3.37;;
19519;SDS011;9904;52.246;20.898;2023-10-09T06:19:54;11.50;;;3.70;;
19519;SDS011;9904;52.246;20.898;2023-10-09T06:22:47;9.67;;;3.23;;
19519;SDS011;9904;52.246;20.898;2023-10-09T06:25:23;10.80;;;3.23;;
19519;SDS011;9904;52.246;20.898;2023-10-09T06:27:58;11.53;;;3.57;;
19519;SDS011;9904;52.246;20.898;2023-10-09T06:30:25;13.67;;;3.63;;
19519;SDS011;9904;52.246;20.898;2023-10-09T06:32:54;9.70;;;3.50;;
19519;SDS011;9904;52.246;20.898;2023-10-09T06:35:21;10.83;;;3.40;;
19519;SDS011;9904;52.246;20.898;2023-10-09T06:37:49;11.20;;;3.90;;
19519;SDS011;9904;52.246;20.898;2023-10-09T06:40:32;13.07;;;4.37;;
19519;SDS011;9904;52.246;20.898;2023-10-09T06:43:20;10.93;;;3.77;;
19519;SDS011;9904;52.246;20.898;2023-10-09T06:45:51;16.87;;;4.30;;
19519;SDS011;9904;52.246;20.898;2023-10-09T06:48:45;12.70;;;4.03;;
19519;SDS011;9904;52.246;20.898;2023-10-09T06:51:18;13.27;;;4.47;;
19519;SDS011;9904;52.246;20.898;2023-10-09T06:53:57;14.10;;;3.90;;
19519;SDS011;9904;52.246;20.898;2023-10-09T06:56:31;13.90;;;4.10;;
19519;SDS011;9904;52.246;20.898;2023-10-09T06:58:59;8.40;;;3.43;;
19519;SDS011;9904;52.246;20.898;2023-10-09T07:01:48;18.37;;;4.07;;
19519;SDS011;9904;52.246;20.898;2023-10-09T07:04:36;11.37;;;4.17;;
19519;SDS011;9904;52.246;20.898;2023-10-09T07:07:03;11.63;;;3.60;;
19519;SDS011;9904;52.246;20.898;2023-10-09T07:09:39;14.23;;;4.57;;
19519;SDS011;9904;52.246;20.898;2023-10-09T07:12:10;17.77;;;3.77;;
19519;SDS011;9904;52.246;20.898;2023-10-09T07:14:41;15.37;;;4.10;;
19519;SDS011;9904;52.246;20.898;2023-10-09T07:17:27;14.17;;;3.80;;
19519;SDS011;9904;52.246;20.898;2023-10-09T07:20:02;14.40;;;3.60;;
19519;SDS011;9904;52.246;20.898;2023-10-09T07:22:42;12.30;;;3.97;;
19519;SDS011;9904;52.246;20.898;2023-10-09T07:25:23;11.23;;;3.83;;
19519;SDS011;9904;52.246;20.898;2023-10-09T07:28:09;11.10;;;4.10;;
19519;SDS011;9904;52.246;20.898;2023-10-09T07:30:58;10.87;;;3.83;;
19519;SDS011;9904;52.246;20.898;2023-10-09T07:33:26;11.50;;;3.90;;
19519;SDS011;9904;52.246;20.898;2023-10-09T07:36:12;17.00;;;4.20;;
19519;SDS011;9904;52.246;20.898;2023-10-09T07:38:40;19.07;;;4.50;;
19519;SDS011;9904;52.246;20.898;2023-10-09T07:41:10;9.67;;;4.13;;
19519;SDS011;9904;52.246;20.898;2023-10-09T07:43:37;11.10;;;3.23;;
19519;SDS011;9904;52.246;20.898;2023-10-09T07:46:06;9.13;;;3.00;;
19519;SDS011;9904;52.246;20.898;2023-10-09T07:48:52;10.90;;;3.23;;
19519;SDS011;9904;52.246;20.898;2023-10-09T07:51:23;11.77;;;3.57;;
19519;SDS011;9904;52.246;20.898;2023-10-09T07:53:57;8.13;;;3.60;;
19519;SDS011;9904;52.246;20.898;2023-10-09T07:59:21;10.73;;;3.20;;
19519;SDS011;9904;52.246;20.898;2023-10-09T08:01:50;12.83;;;3.90;;
19519;SDS011;9904;52.246;20.898;2023-10-09T08:04:29;9.07;;;3.43;;
19519;SDS011;9904;52.246;20.898;2023-10-09T08:07:15;9.63;;;3.60;;
19519;SDS011;9904;52.246;20.898;2023-10-09T08:10:07;8.30;;;2.97;;
19519;SDS011;9904;52.246;20.898;2023-10-09T08:12:44;13.80;;;3.50;;
19519;SDS011;9904;52.246;20.898;2023-10-09T08:15:11;8.23;;;3.60;;
19519;SDS011;9904;52.246;20.898;2023-10-09T08:17:41;16.70;;;3.27;;
19519;SDS011;9904;52.246;20.898;2023-10-09T08:20:14;12.97;;;3.60;;
19519;SDS011;9904;52.246;20.898;2023-10-09T08:22:43;11.23;;;3.67;;
19519;SDS011;9904;52.246;20.898;2023-10-09T08:25:16;8.17;;;3.33;;
19519;SDS011;9904;52.246;20.898;2023-10-09T08:27:59;8.57;;;2.70;;
19519;SDS011;9904;52.246;20.898;2023-10-09T08:30:46;7.20;;;3.00;;
19519;SDS011;9904;52.246;20.898;2023-10-09T08:33:22;4.83;;;2.43;;
19519;SDS011;9904;52.246;20.898;2023-10-09T08:35:54;7.07;;;2.47;;
19519;SDS011;9904;52.246;20.898;2023-10-09T08:38:29;8.40;;;2.90;;
19519;SDS011;9904;52.246;20.898;2023-10-09T08:41:07;6.37;;;2.53;;
19519;SDS011;9904;52.246;20.898;2023-10-09T08:46:19;10.53;;;2.57;;
19519;SDS011;9904;52.246;20.898;2023-10-09T08:48:56;7.20;;;3.00;;
19519;SDS011;9904;52.246;20.898;2023-10-09T08:51:31;11.23;;;3.50;;
19519;SDS011;9904;52.246;20.898;2023-10-09T08:54:01;8.80;;;2.57;;
19519;SDS011;9904;52.246;20.898;2023-10-09T08:56:29;10.07;;;2.97;;
19519;SDS011;9904;52.246;20.898;2023-10-09T08:58:57;10.00;;;2.97;;
19519;SDS011;9904;52.246;20.898;2023-10-09T09:01:29;7.10;;;2.77;;
19519;SDS011;9904;52.246;20.898;2023-10-09T09:03:58;6.73;;;2.77;;
19519;SDS011;9904;52.246;20.898;2023-10-09T09:06:26;10.23;;;2.90;;
19519;SDS011;9904;52.246;20.898;2023-10-09T09:08:53;12.63;;;3.10;;
19519;SDS011;9904;52.246;20.898;2023-10-09T09:11:26;10.87;;;2.53;;
19519;SDS011;9904;52.246;20.898;2023-10-09T09:14:00;8.80;;;2.40;;
19519;SDS011;9904;52.246;20.898;2023-10-09T09:16:33;6.30;;;1.90;;
19519;SDS011;9904;52.246;20.898;2023-10-09T09:19:04;9.03;;;2.10;;
19519;SDS011;9904;52.246;20.898;2023-10-09T09:21:48;7.53;;;2.30;;
19519;SDS011;9904;52.246;20.898;2023-10-09T09:24:21;7.57;;;2.10;;
19519;SDS011;9904;52.246;20.898;2023-10-09T09:26:52;8.47;;;2.33;;
19519;SDS011;9904;52.246;20.898;2023-10-09T09:32:06;5.93;;;1.50;;
19519;SDS011;9904;52.246;20.898;2023-10-09T09:34:52;7.10;;;1.80;;
19519;SDS011;9904;52.246;20.898;2023-10-09T09:37:27;4.33;;;1.50;;
19519;SDS011;9904;52.246;20.898;2023-10-09T09:40:05;3.27;;;1.63;;
19519;SDS011;9904;52.246;20.898;2023-10-09T09:42:55;3.77;;;1.60;;
19519;SDS011;9904;52.246;20.898;2023-10-09T09:45:37;4.17;;;1.73;;
19519;SDS011;9904;52.246;20.898;2023-10-09T09:48:04;4.03;;;1.50;;
19519;SDS011;9904;52.246;20.898;2023-10-09T09:50:39;6.17;;;2.00;;
19519;SDS011;9904;52.246;20.898;2023-10-09T09:53:13;6.00;;;1.90;;
19519;SDS011;9904;52.246;20.898;2023-10-09T09:55:53;5.03;;;2.37;;
19519;SDS011;9904;52.246;20.898;2023-10-09T09:58:25;6.63;;;2.13;;
19519;SDS011;9904;52.246;20.898;2023-10-09T10:01:09;6.03;;;1.97;;
19519;SDS011;9904;52.246;20.898;2023-10-09T10:04:12;8.07;;;2.10;;
19519;SDS011;9904;52.246;20.898;2023-10-09T10:06:46;4.97;;;1.30;;
19519;SDS011;9904;52.246;20.898;2023-10-09T10:09:34;3.83;;;1.60;;
19519;SDS011;9904;52.246;20.898;2023-10-09T10:12:11;6.97;;;1.97;;
19519;SDS011;9904;52.246;20.898;2023-10-09T10:17:25;5.03;;;2.13;;
19519;SDS011;9904;52.246;20.898;2023-10-09T10:22:41;5.53;;;1.70;;
19519;SDS011;9904;52.246;20.898;2023-10-09T10:30:55;8.47;;;2.10;;
19519;SDS011;9904;52.246;20.898;2023-10-09T10:33:27;12.40;;;2.10;;
19519;SDS011;9904;52.246;20.898;2023-10-09T10:36:14;10.17;;;1.70;;
19519;SDS011;9904;52.246;20.898;2023-10-09T10:39:00;11.80;;;2.20;;
19519;SDS011;9904;52.246;20.898;2023-10-09T10:41:37;6.47;;;1.67;;
19519;SDS011;9904;52.246;20.898;2023-10-09T10:44:30;5.60;;;2.07;;
19519;SDS011;9904;52.246;20.898;2023-10-09T10:47:05;7.97;;;2.00;;
19519;SDS011;9904;52.246;20.898;2023-10-09T10:49:55;4.30;;;1.63;;
19519;SDS011;9904;52.246;20.898;2023-10-09T10:52:25;2.40;;;1.40;;
19519;SDS011;9904;52.246;20.898;2023-10-09T10:55:09;7.33;;;1.67;;
19519;SDS011;9904;52.246;20.898;2023-10-09T10:58:01;6.73;;;2.00;;
19519;SDS011;9904;52.246;20.898;2023-10-09T11:00:39;5.70;;;1.90;;
19519;SDS011;9904;52.246;20.898;2023-10-09T11:03:25;9.07;;;1.50;;
19519;SDS011;9904;52.246;20.898;2023-10-09T11:06:11;2.80;;;1.33;;
19519;SDS011;9904;52.246;20.898;2023-10-09T11:08:45;4.17;;;1.50;;
19519;SDS011;9904;52.246;20.898;2023-10-09T11:11:23;5.23;;;1.90;;
19519;SDS011;9904;52.246;20.898;2023-10-09T11:13:49;3.87;;;1.60;;
19519;SDS011;9904;52.246;20.898;2023-10-09T11:16:24;5.20;;;1.90;;
19519;SDS011;9904;52.246;20.898;2023-10-09T11:19:11;4.80;;;2.27;;
19519;SDS011;9904;52.246;20.898;2023-10-09T11:21:55;6.83;;;2.10;;
19519;SDS011;9904;52.246;20.898;2023-10-09T11:24:46;6.83;;;2.10;;
19519;SDS011;9904;52.246;20.898;2023-10-09T11:27:27;7.40;;;2.63;;
19519;SDS011;9904;52.246;20.898;2023-10-09T11:30:00;5.33;;;2.23;;
19519;SDS011;9904;52.246;20.898;2023-10-09T11:32:38;5.17;;;2.20;;
19519;SDS011;9904;52.246;20.898;2023-10-09T11:35:10;7.07;;;2.40;;
19519;SDS011;9904;52.246;20.898;2023-10-09T11:37:54;6.20;;;2.30;;
19519;SDS011;9904;52.246;20.898;2023-10-09T11:40:29;6.83;;;2.80;;
19519;SDS011;9904;52.246;20.898;2023-10-09T11:43:18;6.20;;;2.43;;
19519;SDS011;9904;52.246;20.898;2023-10-09T11:46:08;7.33;;;2.30;;
19519;SDS011;9904;52.246;20.898;2023-10-09T11:48:40;6.00;;;2.40;;
19519;SDS011;9904;52.246;20.898;2023-10-09T11:51:13;10.47;;;2.83;;
19519;SDS011;9904;52.246;20.898;2023-10-09T11:53:46;7.13;;;2.80;;
19519;SDS011;9904;52.246;20.898;2023-10-09T11:56:16;7.33;;;2.60;;
19519;SDS011;9904;52.246;20.898;2023-10-09T11:58:49;6.33;;;2.80;;
19519;SDS011;9904;52.246;20.898;2023-10-09T12:01:20;8.27;;;3.57;;
19519;SDS011;9904;52.246;20.898;2023-10-09T12:03:48;9.50;;;3.00;;
19519;SDS011;9904;52.246;20.898;2023-10-09T12:06:17;7.33;;;3.50;;
19519;SDS011;9904;52.246;20.898;2023-10-09T12:08:49;8.30;;;3.30;;
19519;SDS011;9904;52.246;20.898;2023-10-09T12:11:16;6.97;;;3.23;;
19519;SDS011;9904;52.246;20.898;2023-10-09T12:13:56;7.87;;;3.17;;
19519;SDS011;9904;52.246;20.898;2023-10-09T12:16:24;8.30;;;3.37;;
19519;SDS011;9904;52.246;20.898;2023-10-09T12:19:00;8.47;;;3.20;;
19519;SDS011;9904;52.246;20.898;2023-10-09T12:21:29;8.03;;;4.00;;
19519;SDS011;9904;52.246;20.898;2023-10-09T12:23:56;13.20;;;4.40;;
19519;SDS011;9904;52.246;20.898;2023-10-09T12:26:29;8.43;;;3.63;;
19519;SDS011;9904;52.246;20.898;2023-10-09T12:29:01;11.10;;;3.93;;
19519;SDS011;9904;52.246;20.898;2023-10-09T12:31:29;11.63;;;4.30;;
19519;SDS011;9904;52.246;20.898;2023-10-09T12:34:00;8.00;;;3.43;;
19519;SDS011;9904;52.246;20.898;2023-10-09T12:36:27;9.60;;;3.83;;
19519;SDS011;9904;52.246;20.898;2023-10-09T12:38:56;7.93;;;3.60;;
19519;SDS011;9904;52.246;20.898;2023-10-09T12:41:27;9.67;;;3.97;;
19519;SDS011;9904;52.246;20.898;2023-10-09T12:43:55;8.60;;;3.53;;
19519;SDS011;9904;52.246;20.898;2023-10-09T12:46:26;7.30;;;3.70;;
19519;SDS011;9904;52.246;20.898;2023-10-09T12:48:54;7.67;;;3.70;;
19519;SDS011;9904;52.246;20.898;2023-10-09T12:51:21;10.97;;;4.00;;
19519;SDS011;9904;52.246;20.898;2023-10-09T12:53:56;10.67;;;4.10;;
19519;SDS011;9904;52.246;20.898;2023-10-09T12:56:24;9.20;;;3.97;;
19519;SDS011;9904;52.246;20.898;2023-10-09T12:58:59;10.70;;;4.43;;
19519;SDS011;9904;52.246;20.898;2023-10-09T13:01:27;8.80;;;3.87;;
19519;SDS011;9904;52.246;20.898;2023-10-09T13:03:59;12.33;;;5.23;;
19519;SDS011;9904;52.246;20.898;2023-10-09T13:06:35;12.20;;;4.47;;
19519;SDS011;9904;52.246;20.898;2023-10-09T13:09:13;10.40;;;4.00;;
19519;SDS011;9904;52.246;20.898;2023-10-09T13:11:42;10.17;;;4.63;;
19519;SDS011;9904;52.246;20.898;2023-10-09T13:14:10;10.30;;;4.67;;
19519;SDS011;9904;52.246;20.898;2023-10-09T13:16:49;12.27;;;4.70;;
19519;SDS011;9904;52.246;20.898;2023-10-09T13:19:19;9.93;;;3.97;;
19519;SDS011;9904;52.246;20.898;2023-10-09T13:21:51;12.77;;;4.43;;
19519;SDS011;9904;52.246;20.898;2023-10-09T13:24:19;7.90;;;3.70;;
19519;SDS011;9904;52.246;20.898;2023-10-09T13:26:50;10.47;;;4.27;;
19519;SDS011;9904;52.246;20.898;2023-10-09T13:29:18;13.63;;;4.20;;
19519;SDS011;9904;52.246;20.898;2023-10-09T13:31:51;9.47;;;4.17;;
19519;SDS011;9904;52.246;20.898;2023-10-09T13:34:25;11.70;;;4.50;;
19519;SDS011;9904;52.246;20.898;2023-10-09T13:36:55;9.37;;;4.00;;
19519;SDS011;9904;52.246;20.898;2023-10-09T13:39:25;9.17;;;3.97;;
19519;SDS011;9904;52.246;20.898;2023-10-09T13:44:27;8.27;;;3.90;;
19519;SDS011;9904;52.246;20.898;2023-10-09T13:46:58;10.00;;;4.10;;
19519;SDS011;9904;52.246;20.898;2023-10-09T13:49:33;10.73;;;4.37;;
19519;SDS011;9904;52.246;20.898;2023-10-09T13:52:01;13.60;;;4.33;;
19519;SDS011;9904;52.246;20.898;2023-10-09T13:54:30;12.43;;;4.40;;
19519;SDS011;9904;52.246;20.898;2023-10-09T13:57:00;9.50;;;5.03;;
19519;SDS011;9904;52.246;20.898;2023-10-09T13:59:31;9.67;;;4.30;;
19519;SDS011;9904;52.246;20.898;2023-10-09T14:02:09;10.93;;;4.70;;
19519;SDS011;9904;52.246;20.898;2023-10-09T14:04:37;12.97;;;4.43;;
19519;SDS011;9904;52.246;20.898;2023-10-09T14:07:04;11.57;;;4.40;;
19519;SDS011;9904;52.246;20.898;2023-10-09T14:09:35;8.70;;;3.93;;
19519;SDS011;9904;52.246;20.898;2023-10-09T14:12:05;9.03;;;4.13;;
19519;SDS011;9904;52.246;20.898;2023-10-09T14:14:38;12.57;;;4.20;;
19519;SDS011;9904;52.246;20.898;2023-10-09T14:17:15;8.43;;;4.17;;
19519;SDS011;9904;52.246;20.898;2023-10-09T14:19:49;12.20;;;4.23;;
19519;SDS011;9904;52.246;20.898;2023-10-09T14:22:18;9.73;;;4.47;;
19519;SDS011;9904;52.246;20.898;2023-10-09T14:24:56;13.03;;;4.50;;
19519;SDS011;9904;52.246;20.898;2023-10-09T14:27:24;13.17;;;4.50;;
19519;SDS011;9904;52.246;20.898;2023-10-09T14:29:54;10.77;;;4.80;;
19519;SDS011;9904;52.246;20.898;2023-10-09T14:32:27;11.40;;;4.53;;
19519;SDS011;9904;52.246;20.898;2023-10-09T14:35:10;11.30;;;4.90;;
19519;SDS011;9904;52.246;20.898;2023-10-09T14:37:40;10.87;;;4.60;;
19519;SDS011;9904;52.246;20.898;2023-10-09T14:40:08;14.50;;;4.70;;
19519;SDS011;9904;52.246;20.898;2023-10-09T14:42:47;10.73;;;4.53;;
19519;SDS011;9904;52.246;20.898;2023-10-09T14:45:22;11.43;;;4.70;;
19519;SDS011;9904;52.246;20.898;2023-10-09T14:47:53;11.50;;;5.20;;
19519;SDS011;9904;52.246;20.898;2023-10-09T14:50:21;12.90;;;4.67;;
19519;SDS011;9904;52.246;20.898;2023-10-09T14:52:50;13.23;;;4.77;;
19519;SDS011;9904;52.246;20.898;2023-10-09T14:55:35;14.48;;;4.72;;
19519;SDS011;9904;52.246;20.898;2023-10-09T14:58:01;10.77;;;5.00;;
19519;SDS011;9904;52.246;20.898;2023-10-09T15:00:29;9.33;;;4.40;;
19519;SDS011;9904;52.246;20.898;2023-10-09T15:03:01;10.70;;;4.57;;
19519;SDS011;9904;52.246;20.898;2023-10-09T15:05:30;10.17;;;5.23;;
19519;SDS011;9904;52.246;20.898;2023-10-09T15:08:00;9.47;;;4.97;;
19519;SDS011;9904;52.246;20.898;2023-10-09T15:10:27;17.00;;;5.30;;
19519;SDS011;9904;52.246;20.898;2023-10-09T15:12:56;13.03;;;5.50;;
19519;SDS011;9904;52.246;20.898;2023-10-09T15:15:22;16.83;;;6.27;;
19519;SDS011;9904;52.246;20.898;2023-10-09T15:17:52;15.83;;;6.23;;
19519;SDS011;9904;52.246;20.898;2023-10-09T15:20:20;12.93;;;6.27;;
19519;SDS011;9904;52.246;20.898;2023-10-09T15:22:47;19.60;;;6.90;;
19519;SDS011;9904;52.246;20.898;2023-10-09T15:25:14;17.63;;;7.73;;
19519;SDS011;9904;52.246;20.898;2023-10-09T15:27:42;20.83;;;8.30;;
19519;SDS011;9904;52.246;20.898;2023-10-09T15:30:09;16.47;;;7.23;;
19519;SDS011;9904;52.246;20.898;2023-10-09T15:32:40;16.33;;;6.60;;
19519;SDS011;9904;52.246;20.898;2023-10-09T15:35:08;17.03;;;6.57;;
19519;SDS011;9904;52.246;20.898;2023-10-09T15:37:36;17.33;;;6.70;;
19519;SDS011;9904;52.246;20.898;2023-10-09T15:40:04;14.47;;;6.50;;
19519;SDS011;9904;52.246;20.898;2023-10-09T15:42:32;17.53;;;7.43;;
19519;SDS011;9904;52.246;20.898;2023-10-09T15:45:02;19.73;;;6.70;;
19519;SDS011;9904;52.246;20.898;2023-10-09T15:47:32;13.93;;;6.47;;
19519;SDS011;9904;52.246;20.898;2023-10-09T15:50:03;13.43;;;6.87;;
19519;SDS011;9904;52.246;20.898;2023-10-09T15:52:30;25.70;;;10.00;;
19519;SDS011;9904;52.246;20.898;2023-10-09T15:54:57;21.13;;;8.80;;